sensor_id;sensor_type;location;lat;lon;timestamp;P1;durP1;ratioP1;P2;durP2;ratioP2
21905;SDS011;11117;48.644;9.006;2022-12-29T00:00:21;3.20;;;1.50;;
21905;SDS011;11117;48.644;9.006;2022-12-29T00:02:46;4.27;;;2.00;;
21905;SDS011;11117;48.644;9.006;2022-12-29T00:05:12;3.90;;;1.77;;
21905;SDS011;11117;48.644;9.006;2022-12-29T00:07:37;3.30;;;1.90;;
21905;SDS011;11117;48.644;9.006;2022-12-29T00:10:03;5.67;;;1.83;;
21905;SDS011;11117;48.644;9.006;2022-12-29T00:12:29;3.43;;;1.70;;
21905;SDS011;11117;48.644;9.006;2022-12-29T00:14:54;3.47;;;1.90;;
21905;SDS011;11117;48.644;9.006;2022-12-29T00:17:21;6.40;;;1.80;;
21905;SDS011;11117;48.644;9.006;2022-12-29T00:19:47;3.40;;;1.80;;
21905;SDS011;11117;48.644;9.006;2022-12-29T00:22:13;4.73;;;1.63;;
21905;SDS011;11117;48.644;9.006;2022-12-29T00:24:39;5.40;;;2.33;;
21905;SDS011;11117;48.644;9.006;2022-12-29T00:29:30;9.70;;;1.77;;
21905;SDS011;11117;48.644;9.006;2022-12-29T00:31:56;4.33;;;2.00;;
21905;SDS011;11117;48.644;9.006;2022-12-29T00:34:21;4.07;;;2.07;;
21905;SDS011;11117;48.644;9.006;2022-12-29T00:36:47;3.57;;;1.67;;
21905;SDS011;11117;48.644;9.006;2022-12-29T00:39:13;3.10;;;1.87;;
21905;SDS011;11117;48.644;9.006;2022-12-29T00:41:42;3.93;;;1.83;;
21905;SDS011;11117;48.644;9.006;2022-12-29T00:44:08;4.77;;;1.97;;
21905;SDS011;11117;48.644;9.006;2022-12-29T00:46:36;3.27;;;1.70;;
21905;SDS011;11117;48.644;9.006;2022-12-29T00:49:03;6.10;;;1.93;;
21905;SDS011;11117;48.644;9.006;2022-12-29T00:51:33;2.93;;;1.70;;
21905;SDS011;11117;48.644;9.006;2022-12-29T00:53:59;5.43;;;1.77;;
21905;SDS011;11117;48.644;9.006;2022-12-29T00:56:24;7.90;;;1.77;;
21905;SDS011;11117;48.644;9.006;2022-12-29T00:58:50;2.63;;;1.80;;
21905;SDS011;11117;48.644;9.006;2022-12-29T01:01:16;2.03;;;1.67;;
21905;SDS011;11117;48.644;9.006;2022-12-29T01:03:41;2.87;;;1.70;;
21905;SDS011;11117;48.644;9.006;2022-12-29T01:06:08;3.93;;;1.60;;
21905;SDS011;11117;48.644;9.006;2022-12-29T01:08:35;7.30;;;1.70;;
21905;SDS011;11117;48.644;9.006;2022-12-29T01:11:07;4.63;;;1.40;;
21905;SDS011;11117;48.644;9.006;2022-12-29T01:13:34;3.87;;;1.70;;
21905;SDS011;11117;48.644;9.006;2022-12-29T01:16:01;6.00;;;1.70;;
21905;SDS011;11117;48.644;9.006;2022-12-29T01:18:27;3.17;;;1.60;;
21905;SDS011;11117;48.644;9.006;2022-12-29T01:20:59;2.93;;;1.60;;
21905;SDS011;11117;48.644;9.006;2022-12-29T01:23:26;4.67;;;2.07;;
21905;SDS011;11117;48.644;9.006;2022-12-29T01:25:52;3.63;;;1.53;;
21905;SDS011;11117;48.644;9.006;2022-12-29T01:28:17;3.30;;;1.67;;
21905;SDS011;11117;48.644;9.006;2022-12-29T01:30:43;6.97;;;1.73;;
21905;SDS011;11117;48.644;9.006;2022-12-29T01:33:09;4.07;;;1.60;;
21905;SDS011;11117;48.644;9.006;2022-12-29T01:35:34;3.87;;;1.67;;
21905;SDS011;11117;48.644;9.006;2022-12-29T01:38:00;3.40;;;1.37;;
21905;SDS011;11117;48.644;9.006;2022-12-29T01:40:25;2.83;;;1.50;;
21905;SDS011;11117;48.644;9.006;2022-12-29T01:42:51;3.10;;;1.30;;
21905;SDS011;11117;48.644;9.006;2022-12-29T01:45:17;3.00;;;1.30;;
21905;SDS011;11117;48.644;9.006;2022-12-29T01:47:56;2.27;;;1.33;;
21905;SDS011;11117;48.644;9.006;2022-12-29T01:50:26;2.73;;;1.30;;
21905;SDS011;11117;48.644;9.006;2022-12-29T01:55:44;3.63;;;1.30;;
21905;SDS011;11117;48.644;9.006;2022-12-29T01:58:14;3.27;;;1.40;;
21905;SDS011;11117;48.644;9.006;2022-12-29T02:00:42;6.47;;;1.30;;
21905;SDS011;11117;48.644;9.006;2022-12-29T02:03:08;3.87;;;1.47;;
21905;SDS011;11117;48.644;9.006;2022-12-29T02:05:39;3.33;;;1.30;;
21905;SDS011;11117;48.644;9.006;2022-12-29T02:08:12;2.90;;;1.27;;
21905;SDS011;11117;48.644;9.006;2022-12-29T02:10:38;3.67;;;1.20;;
21905;SDS011;11117;48.644;9.006;2022-12-29T02:13:05;5.40;;;1.30;;
21905;SDS011;11117;48.644;9.006;2022-12-29T02:18:34;4.00;;;1.30;;
21905;SDS011;11117;48.644;9.006;2022-12-29T02:24:05;3.40;;;1.20;;
21905;SDS011;11117;48.644;9.006;2022-12-29T02:27:05;3.20;;;1.20;;
21905;SDS011;11117;48.644;9.006;2022-12-29T02:29:53;5.20;;;1.27;;
21905;SDS011;11117;48.644;9.006;2022-12-29T02:34:58;4.90;;;1.20;;
21905;SDS011;11117;48.644;9.006;2022-12-29T02:37:42;2.60;;;1.03;;
21905;SDS011;11117;48.644;9.006;2022-12-29T02:40:23;2.97;;;1.20;;
21905;SDS011;11117;48.644;9.006;2022-12-29T02:42:51;4.47;;;1.17;;
21905;SDS011;11117;48.644;9.006;2022-12-29T02:45:26;4.77;;;1.20;;
21905;SDS011;11117;48.644;9.006;2022-12-29T02:48:03;3.57;;;1.20;;
21905;SDS011;11117;48.644;9.006;2022-12-29T02:50:36;4.83;;;1.20;;
21905;SDS011;11117;48.644;9.006;2022-12-29T02:53:13;3.33;;;1.10;;
21905;SDS011;11117;48.644;9.006;2022-12-29T02:55:51;3.03;;;1.30;;
21905;SDS011;11117;48.644;9.006;2022-12-29T02:58:20;4.87;;;1.20;;
21905;SDS011;11117;48.644;9.006;2022-12-29T03:00:51;1.67;;;1.17;;
21905;SDS011;11117;48.644;9.006;2022-12-29T03:06:48;3.27;;;1.20;;
21905;SDS011;11117;48.644;9.006;2022-12-29T03:12:31;7.10;;;1.10;;
21905;SDS011;11117;48.644;9.006;2022-12-29T03:15:09;1.60;;;1.00;;
21905;SDS011;11117;48.644;9.006;2022-12-29T03:17:40;4.43;;;1.20;;
21905;SDS011;11117;48.644;9.006;2022-12-29T03:20:32;6.80;;;1.20;;
21905;SDS011;11117;48.644;9.006;2022-12-29T03:23:29;3.67;;;1.10;;
21905;SDS011;11117;48.644;9.006;2022-12-29T03:25:57;4.23;;;1.30;;
21905;SDS011;11117;48.644;9.006;2022-12-29T03:28:31;2.80;;;1.30;;
21905;SDS011;11117;48.644;9.006;2022-12-29T03:31:01;6.37;;;1.50;;
21905;SDS011;11117;48.644;9.006;2022-12-29T03:33:29;2.87;;;1.20;;
21905;SDS011;11117;48.644;9.006;2022-12-29T03:35:58;4.93;;;1.40;;
21905;SDS011;11117;48.644;9.006;2022-12-29T03:41:11;2.87;;;1.13;;
21905;SDS011;11117;48.644;9.006;2022-12-29T03:43:41;3.23;;;1.20;;
21905;SDS011;11117;48.644;9.006;2022-12-29T03:46:06;3.40;;;1.60;;
21905;SDS011;11117;48.644;9.006;2022-12-29T03:48:32;4.17;;;1.10;;
21905;SDS011;11117;48.644;9.006;2022-12-29T03:50:58;8.07;;;1.37;;
21905;SDS011;11117;48.644;9.006;2022-12-29T03:53:23;5.90;;;1.37;;
21905;SDS011;11117;48.644;9.006;2022-12-29T03:55:49;2.93;;;1.47;;
21905;SDS011;11117;48.644;9.006;2022-12-29T03:58:15;6.13;;;1.60;;
21905;SDS011;11117;48.644;9.006;2022-12-29T04:00:41;4.10;;;1.50;;
21905;SDS011;11117;48.644;9.006;2022-12-29T04:03:06;6.87;;;1.80;;
21905;SDS011;11117;48.644;9.006;2022-12-29T04:05:32;4.10;;;1.37;;
21905;SDS011;11117;48.644;9.006;2022-12-29T04:07:58;4.83;;;1.77;;
21905;SDS011;11117;48.644;9.006;2022-12-29T04:10:23;6.37;;;1.83;;
21905;SDS011;11117;48.644;9.006;2022-12-29T04:12:49;4.63;;;1.77;;
21905;SDS011;11117;48.644;9.006;2022-12-29T04:15:14;7.07;;;1.63;;
21905;SDS011;11117;48.644;9.006;2022-12-29T04:17:40;5.27;;;1.80;;
21905;SDS011;11117;48.644;9.006;2022-12-29T04:20:06;2.60;;;1.33;;
21905;SDS011;11117;48.644;9.006;2022-12-29T04:22:32;3.50;;;1.30;;
21905;SDS011;11117;48.644;9.006;2022-12-29T04:25:00;3.70;;;1.70;;
21905;SDS011;11117;48.644;9.006;2022-12-29T04:27:26;2.07;;;1.30;;
21905;SDS011;11117;48.644;9.006;2022-12-29T04:29:51;4.77;;;1.50;;
21905;SDS011;11117;48.644;9.006;2022-12-29T04:32:20;2.63;;;1.43;;
21905;SDS011;11117;48.644;9.006;2022-12-29T04:34:46;3.90;;;1.60;;
21905;SDS011;11117;48.644;9.006;2022-12-29T04:37:12;3.70;;;1.63;;
21905;SDS011;11117;48.644;9.006;2022-12-29T04:39:38;8.13;;;1.50;;
21905;SDS011;11117;48.644;9.006;2022-12-29T04:42:04;3.57;;;1.97;;
21905;SDS011;11117;48.644;9.006;2022-12-29T04:44:29;4.73;;;1.80;;
21905;SDS011;11117;48.644;9.006;2022-12-29T04:46:55;2.07;;;1.60;;
21905;SDS011;11117;48.644;9.006;2022-12-29T04:49:20;3.67;;;1.67;;
21905;SDS011;11117;48.644;9.006;2022-12-29T04:51:46;4.03;;;1.60;;
21905;SDS011;11117;48.644;9.006;2022-12-29T04:54:11;2.60;;;1.70;;
21905;SDS011;11117;48.644;9.006;2022-12-29T04:56:37;4.77;;;1.80;;
21905;SDS011;11117;48.644;9.006;2022-12-29T04:59:02;2.37;;;1.60;;
21905;SDS011;11117;48.644;9.006;2022-12-29T05:01:28;2.30;;;1.70;;
21905;SDS011;11117;48.644;9.006;2022-12-29T05:03:54;3.53;;;1.80;;
21905;SDS011;11117;48.644;9.006;2022-12-29T05:06:19;3.20;;;1.73;;
21905;SDS011;11117;48.644;9.006;2022-12-29T05:08:45;9.80;;;1.60;;
21905;SDS011;11117;48.644;9.006;2022-12-29T05:11:10;3.30;;;1.70;;
21905;SDS011;11117;48.644;9.006;2022-12-29T05:13:39;5.50;;;1.70;;
21905;SDS011;11117;48.644;9.006;2022-12-29T05:16:05;2.63;;;1.70;;
21905;SDS011;11117;48.644;9.006;2022-12-29T05:18:30;3.70;;;2.00;;
21905;SDS011;11117;48.644;9.006;2022-12-29T05:20:56;2.57;;;1.60;;
21905;SDS011;11117;48.644;9.006;2022-12-29T05:23:21;4.03;;;1.70;;
21905;SDS011;11117;48.644;9.006;2022-12-29T05:25:47;4.33;;;1.50;;
21905;SDS011;11117;48.644;9.006;2022-12-29T05:28:13;2.83;;;1.73;;
21905;SDS011;11117;48.644;9.006;2022-12-29T05:30:39;7.53;;;1.90;;
21905;SDS011;11117;48.644;9.006;2022-12-29T05:33:10;4.97;;;2.00;;
21905;SDS011;11117;48.644;9.006;2022-12-29T05:35:36;4.50;;;1.43;;
21905;SDS011;11117;48.644;9.006;2022-12-29T05:38:01;5.83;;;1.90;;
21905;SDS011;11117;48.644;9.006;2022-12-29T05:40:27;3.87;;;1.50;;
21905;SDS011;11117;48.644;9.006;2022-12-29T05:42:52;4.53;;;1.50;;
21905;SDS011;11117;48.644;9.006;2022-12-29T05:45:18;3.93;;;1.50;;
21905;SDS011;11117;48.644;9.006;2022-12-29T05:47:43;4.40;;;1.80;;
21905;SDS011;11117;48.644;9.006;2022-12-29T05:50:09;2.70;;;1.50;;
21905;SDS011;11117;48.644;9.006;2022-12-29T05:52:35;5.33;;;1.37;;
21905;SDS011;11117;48.644;9.006;2022-12-29T05:55:00;3.90;;;1.80;;
21905;SDS011;11117;48.644;9.006;2022-12-29T05:57:26;4.23;;;1.70;;
21905;SDS011;11117;48.644;9.006;2022-12-29T05:59:51;3.37;;;1.60;;
21905;SDS011;11117;48.644;9.006;2022-12-29T06:02:17;5.90;;;1.40;;
21905;SDS011;11117;48.644;9.006;2022-12-29T06:04:42;2.63;;;1.50;;
21905;SDS011;11117;48.644;9.006;2022-12-29T06:07:08;2.57;;;1.50;;
21905;SDS011;11117;48.644;9.006;2022-12-29T06:09:33;4.67;;;1.70;;
21905;SDS011;11117;48.644;9.006;2022-12-29T06:11:59;4.87;;;1.67;;
21905;SDS011;11117;48.644;9.006;2022-12-29T06:14:24;4.03;;;1.80;;
21905;SDS011;11117;48.644;9.006;2022-12-29T06:16:50;2.77;;;1.53;;
21905;SDS011;11117;48.644;9.006;2022-12-29T06:19:16;3.00;;;1.40;;
21905;SDS011;11117;48.644;9.006;2022-12-29T06:21:41;4.53;;;1.47;;
21905;SDS011;11117;48.644;9.006;2022-12-29T06:24:07;2.53;;;1.67;;
21905;SDS011;11117;48.644;9.006;2022-12-29T06:26:33;2.30;;;1.70;;
21905;SDS011;11117;48.644;9.006;2022-12-29T06:28:59;4.27;;;1.70;;
21905;SDS011;11117;48.644;9.006;2022-12-29T06:31:24;4.53;;;1.73;;
21905;SDS011;11117;48.644;9.006;2022-12-29T06:33:50;5.53;;;2.10;;
21905;SDS011;11117;48.644;9.006;2022-12-29T06:36:15;5.10;;;1.90;;
21905;SDS011;11117;48.644;9.006;2022-12-29T06:38:41;3.60;;;1.70;;
21905;SDS011;11117;48.644;9.006;2022-12-29T06:41:07;4.30;;;1.77;;
21905;SDS011;11117;48.644;9.006;2022-12-29T06:43:32;3.63;;;1.77;;
21905;SDS011;11117;48.644;9.006;2022-12-29T06:45:58;5.70;;;1.50;;
21905;SDS011;11117;48.644;9.006;2022-12-29T06:48:23;3.90;;;1.60;;
21905;SDS011;11117;48.644;9.006;2022-12-29T06:50:49;1.80;;;1.40;;
21905;SDS011;11117;48.644;9.006;2022-12-29T06:53:14;5.33;;;1.50;;
21905;SDS011;11117;48.644;9.006;2022-12-29T06:55:41;4.47;;;1.40;;
21905;SDS011;11117;48.644;9.006;2022-12-29T06:58:07;9.17;;;1.77;;
21905;SDS011;11117;48.644;9.006;2022-12-29T07:00:32;2.57;;;1.70;;
21905;SDS011;11117;48.644;9.006;2022-12-29T07:02:58;3.10;;;1.70;;
21905;SDS011;11117;48.644;9.006;2022-12-29T07:05:24;6.60;;;1.53;;
21905;SDS011;11117;48.644;9.006;2022-12-29T07:07:50;3.03;;;1.40;;
21905;SDS011;11117;48.644;9.006;2022-12-29T07:10:15;2.43;;;1.40;;
21905;SDS011;11117;48.644;9.006;2022-12-29T07:12:41;3.10;;;1.60;;
21905;SDS011;11117;48.644;9.006;2022-12-29T07:15:06;3.40;;;1.57;;
21905;SDS011;11117;48.644;9.006;2022-12-29T07:17:32;5.20;;;2.03;;
21905;SDS011;11117;48.644;9.006;2022-12-29T07:19:58;3.60;;;1.60;;
21905;SDS011;11117;48.644;9.006;2022-12-29T07:22:23;4.07;;;1.53;;
21905;SDS011;11117;48.644;9.006;2022-12-29T07:24:49;6.20;;;1.60;;
21905;SDS011;11117;48.644;9.006;2022-12-29T07:27:14;7.43;;;1.80;;
21905;SDS011;11117;48.644;9.006;2022-12-29T07:29:40;2.50;;;1.40;;
21905;SDS011;11117;48.644;9.006;2022-12-29T07:32:05;4.07;;;1.60;;
21905;SDS011;11117;48.644;9.006;2022-12-29T07:34:31;4.17;;;1.50;;
21905;SDS011;11117;48.644;9.006;2022-12-29T07:36:56;3.83;;;1.53;;
21905;SDS011;11117;48.644;9.006;2022-12-29T07:39:22;4.87;;;2.00;;
21905;SDS011;11117;48.644;9.006;2022-12-29T07:41:47;5.20;;;1.70;;
21905;SDS011;11117;48.644;9.006;2022-12-29T07:44:13;5.40;;;1.77;;
21905;SDS011;11117;48.644;9.006;2022-12-29T07:46:38;5.70;;;1.90;;
21905;SDS011;11117;48.644;9.006;2022-12-29T07:49:04;3.70;;;1.60;;
21905;SDS011;11117;48.644;9.006;2022-12-29T07:51:29;3.03;;;1.63;;
21905;SDS011;11117;48.644;9.006;2022-12-29T07:53:55;3.60;;;1.50;;
21905;SDS011;11117;48.644;9.006;2022-12-29T07:56:21;2.07;;;1.50;;
21905;SDS011;11117;48.644;9.006;2022-12-29T07:58:46;5.00;;;1.50;;
21905;SDS011;11117;48.644;9.006;2022-12-29T08:01:12;6.53;;;1.63;;
21905;SDS011;11117;48.644;9.006;2022-12-29T08:03:37;4.80;;;1.40;;
21905;SDS011;11117;48.644;9.006;2022-12-29T08:06:03;4.43;;;1.50;;
21905;SDS011;11117;48.644;9.006;2022-12-29T08:08:28;4.20;;;1.80;;
21905;SDS011;11117;48.644;9.006;2022-12-29T08:10:54;3.63;;;1.90;;
21905;SDS011;11117;48.644;9.006;2022-12-29T08:13:19;4.20;;;1.63;;
21905;SDS011;11117;48.644;9.006;2022-12-29T08:15:45;3.53;;;1.60;;
21905;SDS011;11117;48.644;9.006;2022-12-29T08:18:10;4.30;;;1.60;;
21905;SDS011;11117;48.644;9.006;2022-12-29T08:20:36;6.10;;;1.80;;
21905;SDS011;11117;48.644;9.006;2022-12-29T08:23:01;3.73;;;1.83;;
21905;SDS011;11117;48.644;9.006;2022-12-29T08:25:27;4.10;;;1.60;;
21905;SDS011;11117;48.644;9.006;2022-12-29T08:27:55;3.33;;;1.40;;
21905;SDS011;11117;48.644;9.006;2022-12-29T08:30:24;4.63;;;1.80;;
21905;SDS011;11117;48.644;9.006;2022-12-29T08:32:49;3.47;;;1.80;;
21905;SDS011;11117;48.644;9.006;2022-12-29T08:35:15;4.33;;;1.90;;
21905;SDS011;11117;48.644;9.006;2022-12-29T08:37:41;6.57;;;1.70;;
21905;SDS011;11117;48.644;9.006;2022-12-29T08:40:06;6.80;;;1.50;;
21905;SDS011;11117;48.644;9.006;2022-12-29T08:42:32;4.70;;;1.83;;
21905;SDS011;11117;48.644;9.006;2022-12-29T08:44:58;3.13;;;1.57;;
21905;SDS011;11117;48.644;9.006;2022-12-29T08:47:24;5.77;;;1.40;;
21905;SDS011;11117;48.644;9.006;2022-12-29T08:49:50;4.87;;;1.70;;
21905;SDS011;11117;48.644;9.006;2022-12-29T08:52:16;3.27;;;1.83;;
21905;SDS011;11117;48.644;9.006;2022-12-29T08:54:42;3.43;;;1.53;;
21905;SDS011;11117;48.644;9.006;2022-12-29T08:57:08;4.50;;;1.90;;
21905;SDS011;11117;48.644;9.006;2022-12-29T08:59:33;3.57;;;1.57;;
21905;SDS011;11117;48.644;9.006;2022-12-29T09:01:59;3.90;;;1.47;;
21905;SDS011;11117;48.644;9.006;2022-12-29T09:04:24;5.57;;;2.50;;
21905;SDS011;11117;48.644;9.006;2022-12-29T09:06:50;7.47;;;1.90;;
21905;SDS011;11117;48.644;9.006;2022-12-29T09:09:15;4.43;;;1.80;;
21905;SDS011;11117;48.644;9.006;2022-12-29T09:11:41;4.50;;;2.10;;
21905;SDS011;11117;48.644;9.006;2022-12-29T09:14:07;5.10;;;1.90;;
21905;SDS011;11117;48.644;9.006;2022-12-29T09:16:33;4.47;;;1.37;;
21905;SDS011;11117;48.644;9.006;2022-12-29T09:18:59;3.57;;;1.83;;
21905;SDS011;11117;48.644;9.006;2022-12-29T09:21:25;3.00;;;1.50;;
21905;SDS011;11117;48.644;9.006;2022-12-29T09:23:53;4.93;;;1.50;;
21905;SDS011;11117;48.644;9.006;2022-12-29T09:26:19;2.60;;;1.37;;
21905;SDS011;11117;48.644;9.006;2022-12-29T09:28:45;4.63;;;1.60;;
21905;SDS011;11117;48.644;9.006;2022-12-29T09:31:10;2.80;;;1.50;;
21905;SDS011;11117;48.644;9.006;2022-12-29T09:33:36;5.60;;;2.00;;
21905;SDS011;11117;48.644;9.006;2022-12-29T09:36:02;4.27;;;1.63;;
21905;SDS011;11117;48.644;9.006;2022-12-29T09:38:28;2.10;;;1.50;;
21905;SDS011;11117;48.644;9.006;2022-12-29T09:40:55;2.70;;;1.53;;
21905;SDS011;11117;48.644;9.006;2022-12-29T09:46:30;2.33;;;1.33;;
21905;SDS011;11117;48.644;9.006;2022-12-29T09:49:07;6.60;;;1.63;;
21905;SDS011;11117;48.644;9.006;2022-12-29T09:51:47;6.10;;;2.00;;
21905;SDS011;11117;48.644;9.006;2022-12-29T09:56:41;4.10;;;1.70;;
21905;SDS011;11117;48.644;9.006;2022-12-29T09:59:12;4.30;;;1.37;;
21905;SDS011;11117;48.644;9.006;2022-12-29T10:01:49;4.00;;;1.30;;
21905;SDS011;11117;48.644;9.006;2022-12-29T10:04:27;2.37;;;1.50;;
21905;SDS011;11117;48.644;9.006;2022-12-29T10:17:25;3.57;;;1.60;;
21905;SDS011;11117;48.644;9.006;2022-12-29T10:25:40;5.10;;;1.90;;
21905;SDS011;11117;48.644;9.006;2022-12-29T10:28:18;4.33;;;1.70;;
21905;SDS011;11117;48.644;9.006;2022-12-29T10:30:45;3.37;;;1.50;;
21905;SDS011;11117;48.644;9.006;2022-12-29T10:33:15;5.23;;;1.53;;
21905;SDS011;11117;48.644;9.006;2022-12-29T10:35:45;3.63;;;1.53;;
21905;SDS011;11117;48.644;9.006;2022-12-29T10:45:50;3.60;;;1.93;;
21905;SDS011;11117;48.644;9.006;2022-12-29T10:48:22;4.13;;;1.57;;
21905;SDS011;11117;48.644;9.006;2022-12-29T10:50:51;7.47;;;1.50;;
21905;SDS011;11117;48.644;9.006;2022-12-29T10:53:21;3.70;;;1.70;;
21905;SDS011;11117;48.644;9.006;2022-12-29T10:55:50;4.03;;;1.53;;
21905;SDS011;11117;48.644;9.006;2022-12-29T10:58:17;3.77;;;1.60;;
21905;SDS011;11117;48.644;9.006;2022-12-29T11:00:43;5.07;;;1.93;;
21905;SDS011;11117;48.644;9.006;2022-12-29T11:05:56;3.73;;;1.73;;
21905;SDS011;11117;48.644;9.006;2022-12-29T11:08:27;2.90;;;1.67;;
21905;SDS011;11117;48.644;9.006;2022-12-29T11:10:59;3.13;;;1.63;;
21905;SDS011;11117;48.644;9.006;2022-12-29T11:13:27;3.07;;;1.53;;
21905;SDS011;11117;48.644;9.006;2022-12-29T11:15:55;5.67;;;1.60;;
21905;SDS011;11117;48.644;9.006;2022-12-29T11:18:31;5.07;;;1.67;;
21905;SDS011;11117;48.644;9.006;2022-12-29T11:21:01;6.60;;;1.70;;
21905;SDS011;11117;48.644;9.006;2022-12-29T11:23:35;6.87;;;1.57;;
21905;SDS011;11117;48.644;9.006;2022-12-29T11:26:07;6.30;;;1.77;;
21905;SDS011;11117;48.644;9.006;2022-12-29T11:28:36;4.43;;;1.30;;
21905;SDS011;11117;48.644;9.006;2022-12-29T11:31:02;6.73;;;1.80;;
21905;SDS011;11117;48.644;9.006;2022-12-29T11:33:30;2.87;;;1.47;;
21905;SDS011;11117;48.644;9.006;2022-12-29T11:36:16;3.23;;;1.47;;
21905;SDS011;11117;48.644;9.006;2022-12-29T11:38:51;2.97;;;1.50;;
21905;SDS011;11117;48.644;9.006;2022-12-29T11:41:30;2.17;;;1.23;;
21905;SDS011;11117;48.644;9.006;2022-12-29T11:44:00;3.20;;;1.30;;
21905;SDS011;11117;48.644;9.006;2022-12-29T11:46:29;1.97;;;1.23;;
21905;SDS011;11117;48.644;9.006;2022-12-29T11:48:58;5.03;;;1.40;;
21905;SDS011;11117;48.644;9.006;2022-12-29T11:51:26;4.63;;;1.30;;
21905;SDS011;11117;48.644;9.006;2022-12-29T11:53:58;2.37;;;1.40;;
21905;SDS011;11117;48.644;9.006;2022-12-29T11:56:33;3.60;;;1.20;;
21905;SDS011;11117;48.644;9.006;2022-12-29T12:01:54;4.00;;;1.43;;
21905;SDS011;11117;48.644;9.006;2022-12-29T12:04:21;5.07;;;1.90;;
21905;SDS011;11117;48.644;9.006;2022-12-29T12:06:57;5.97;;;1.70;;
21905;SDS011;11117;48.644;9.006;2022-12-29T12:09:36;3.33;;;1.63;;
21905;SDS011;11117;48.644;9.006;2022-12-29T12:12:19;3.37;;;1.60;;
21905;SDS011;11117;48.644;9.006;2022-12-29T12:14:55;4.13;;;1.70;;
21905;SDS011;11117;48.644;9.006;2022-12-29T12:20:22;2.50;;;1.93;;
21905;SDS011;11117;48.644;9.006;2022-12-29T12:25:34;5.53;;;1.93;;
21905;SDS011;11117;48.644;9.006;2022-12-29T12:28:20;3.17;;;1.73;;
21905;SDS011;11117;48.644;9.006;2022-12-29T12:30:59;3.00;;;1.97;;
21905;SDS011;11117;48.644;9.006;2022-12-29T12:33:29;2.87;;;1.70;;
21905;SDS011;11117;48.644;9.006;2022-12-29T12:47:59;3.50;;;1.97;;
21905;SDS011;11117;48.644;9.006;2022-12-29T12:53:47;5.83;;;1.80;;
21905;SDS011;11117;48.644;9.006;2022-12-29T12:56:32;2.50;;;1.80;;
21905;SDS011;11117;48.644;9.006;2022-12-29T13:07:20;5.30;;;1.87;;
21905;SDS011;11117;48.644;9.006;2022-12-29T13:24:05;3.80;;;1.87;;
21905;SDS011;11117;48.644;9.006;2022-12-29T13:29:41;3.00;;;1.80;;
21905;SDS011;11117;48.644;9.006;2022-12-29T13:38:11;4.30;;;1.90;;
21905;SDS011;11117;48.644;9.006;2022-12-29T13:40:44;4.03;;;2.10;;
21905;SDS011;11117;48.644;9.006;2022-12-29T13:43:12;5.07;;;2.17;;
21905;SDS011;11117;48.644;9.006;2022-12-29T13:45:43;4.23;;;2.17;;
21905;SDS011;11117;48.644;9.006;2022-12-29T13:48:14;8.90;;;2.37;;
21905;SDS011;11117;48.644;9.006;2022-12-29T13:50:45;4.07;;;2.10;;
21905;SDS011;11117;48.644;9.006;2022-12-29T13:54:17;3.87;;;2.00;;
21905;SDS011;11117;48.644;9.006;2022-12-29T13:56:55;5.40;;;2.10;;
21905;SDS011;11117;48.644;9.006;2022-12-29T13:59:49;6.93;;;2.70;;
21905;SDS011;11117;48.644;9.006;2022-12-29T14:07:49;3.63;;;2.10;;
21905;SDS011;11117;48.644;9.006;2022-12-29T14:10:27;6.33;;;2.10;;
21905;SDS011;11117;48.644;9.006;2022-12-29T14:13:03;2.97;;;1.70;;
21905;SDS011;11117;48.644;9.006;2022-12-29T14:15:40;5.50;;;2.10;;
21905;SDS011;11117;48.644;9.006;2022-12-29T14:18:16;5.07;;;1.90;;
21905;SDS011;11117;48.644;9.006;2022-12-29T14:20:56;4.47;;;2.00;;
21905;SDS011;11117;48.644;9.006;2022-12-29T14:26:14;3.63;;;1.80;;
21905;SDS011;11117;48.644;9.006;2022-12-29T14:28:39;5.10;;;1.67;;
21905;SDS011;11117;48.644;9.006;2022-12-29T14:34:14;4.63;;;1.97;;
21905;SDS011;11117;48.644;9.006;2022-12-29T14:36:39;4.77;;;1.83;;
21905;SDS011;11117;48.644;9.006;2022-12-29T14:39:34;3.90;;;1.73;;
21905;SDS011;11117;48.644;9.006;2022-12-29T14:47:19;4.73;;;2.10;;
21905;SDS011;11117;48.644;9.006;2022-12-29T14:49:54;2.90;;;1.90;;
21905;SDS011;11117;48.644;9.006;2022-12-29T14:52:24;3.57;;;2.13;;
21905;SDS011;11117;48.644;9.006;2022-12-29T14:54:54;3.60;;;1.90;;
21905;SDS011;11117;48.644;9.006;2022-12-29T14:57:40;5.00;;;2.07;;
21905;SDS011;11117;48.644;9.006;2022-12-29T15:00:13;3.27;;;1.90;;
21905;SDS011;11117;48.644;9.006;2022-12-29T15:02:44;5.40;;;1.70;;
21905;SDS011;11117;48.644;9.006;2022-12-29T15:05:30;4.03;;;1.93;;
21905;SDS011;11117;48.644;9.006;2022-12-29T15:07:59;5.50;;;2.00;;
21905;SDS011;11117;48.644;9.006;2022-12-29T15:10:26;7.67;;;1.77;;
21905;SDS011;11117;48.644;9.006;2022-12-29T15:13:02;6.20;;;2.23;;
21905;SDS011;11117;48.644;9.006;2022-12-29T15:15:35;5.97;;;2.10;;
21905;SDS011;11117;48.644;9.006;2022-12-29T15:20:49;4.07;;;1.90;;
21905;SDS011;11117;48.644;9.006;2022-12-29T15:23:18;3.87;;;2.20;;
21905;SDS011;11117;48.644;9.006;2022-12-29T15:25:46;4.30;;;2.20;;
21905;SDS011;11117;48.644;9.006;2022-12-29T15:28:15;4.13;;;1.90;;
21905;SDS011;11117;48.644;9.006;2022-12-29T15:30:55;4.57;;;2.10;;
21905;SDS011;11117;48.644;9.006;2022-12-29T15:33:30;5.43;;;2.23;;
21905;SDS011;11117;48.644;9.006;2022-12-29T15:36:02;7.47;;;2.00;;
21905;SDS011;11117;48.644;9.006;2022-12-29T15:38:34;6.43;;;2.00;;
21905;SDS011;11117;48.644;9.006;2022-12-29T15:41:02;3.30;;;2.00;;
21905;SDS011;11117;48.644;9.006;2022-12-29T15:46:03;5.20;;;2.00;;
21905;SDS011;11117;48.644;9.006;2022-12-29T15:48:28;5.37;;;2.13;;
21905;SDS011;11117;48.644;9.006;2022-12-29T15:50:56;3.87;;;2.00;;
21905;SDS011;11117;48.644;9.006;2022-12-29T15:53:23;8.07;;;2.03;;
21905;SDS011;11117;48.644;9.006;2022-12-29T15:55:52;3.57;;;2.00;;
21905;SDS011;11117;48.644;9.006;2022-12-29T15:58:27;4.00;;;2.20;;
21905;SDS011;11117;48.644;9.006;2022-12-29T16:00:56;4.33;;;2.17;;
21905;SDS011;11117;48.644;9.006;2022-12-29T16:03:27;9.37;;;2.23;;
21905;SDS011;11117;48.644;9.006;2022-12-29T16:06:06;5.87;;;2.27;;
21905;SDS011;11117;48.644;9.006;2022-12-29T16:08:35;5.57;;;2.23;;
21905;SDS011;11117;48.644;9.006;2022-12-29T16:11:03;6.33;;;2.30;;
21905;SDS011;11117;48.644;9.006;2022-12-29T16:13:51;5.27;;;2.10;;
21905;SDS011;11117;48.644;9.006;2022-12-29T16:16:22;11.53;;;2.40;;
21905;SDS011;11117;48.644;9.006;2022-12-29T16:18:55;3.17;;;2.17;;
21905;SDS011;11117;48.644;9.006;2022-12-29T16:21:28;5.37;;;2.40;;
21905;SDS011;11117;48.644;9.006;2022-12-29T16:24:02;5.80;;;2.20;;
21905;SDS011;11117;48.644;9.006;2022-12-29T16:26:31;6.90;;;2.53;;
21905;SDS011;11117;48.644;9.006;2022-12-29T16:28:58;3.63;;;2.13;;
21905;SDS011;11117;48.644;9.006;2022-12-29T16:34:09;5.37;;;1.97;;
21905;SDS011;11117;48.644;9.006;2022-12-29T16:37:32;3.27;;;2.20;;
21905;SDS011;11117;48.644;9.006;2022-12-29T16:39:50;3.03;;;2.10;;
21905;SDS011;11117;48.644;9.006;2022-12-29T16:42:58;6.50;;;2.50;;
21905;SDS011;11117;48.644;9.006;2022-12-29T16:45:19;6.33;;;2.37;;
21905;SDS011;11117;48.644;9.006;2022-12-29T16:48:23;5.57;;;2.30;;
21905;SDS011;11117;48.644;9.006;2022-12-29T16:51:00;4.77;;;2.77;;
21905;SDS011;11117;48.644;9.006;2022-12-29T16:53:37;5.40;;;2.63;;
21905;SDS011;11117;48.644;9.006;2022-12-29T16:56:08;5.37;;;2.50;;
21905;SDS011;11117;48.644;9.006;2022-12-29T16:58:38;7.33;;;3.00;;
21905;SDS011;11117;48.644;9.006;2022-12-29T17:01:04;7.40;;;3.40;;
21905;SDS011;11117;48.644;9.006;2022-12-29T17:03:33;6.00;;;3.27;;
21905;SDS011;11117;48.644;9.006;2022-12-29T17:06:08;9.73;;;4.23;;
21905;SDS011;11117;48.644;9.006;2022-12-29T17:08:40;5.20;;;3.20;;
21905;SDS011;11117;48.644;9.006;2022-12-29T17:11:08;8.47;;;3.30;;
21905;SDS011;11117;48.644;9.006;2022-12-29T17:14:13;5.53;;;3.13;;
21905;SDS011;11117;48.644;9.006;2022-12-29T17:16:48;7.07;;;3.87;;